sensor_id;sensor_type;location;lat;lon;timestamp;pressure;altitude;pressure_sealevel;temperature;humidity
55456;BME280;63021;52.836;6.376;2022-08-21T00:01:39;101719.59;;;16.14;65.58
55456;BME280;63021;52.836;6.376;2022-08-21T00:04:15;101711.88;;;16.10;66.08
55456;BME280;63021;52.836;6.376;2022-08-21T00:06:43;101720.06;;;16.09;65.89
55456;BME280;63021;52.836;6.376;2022-08-21T00:09:15;101722.06;;;16.07;65.72
55456;BME280;63021;52.836;6.376;2022-08-21T00:11:41;101725.91;;;16.04;65.79
55456;BME280;63021;52.836;6.376;2022-08-21T00:14:11;101719.03;;;16.02;66.17
55456;BME280;63021;52.836;6.376;2022-08-21T00:16:54;101720.22;;;15.99;65.96
55456;BME280;63021;52.836;6.376;2022-08-21T00:19:23;101723.34;;;15.94;66.08
55456;BME280;63021;52.836;6.376;2022-08-21T00:21:56;101720.66;;;15.94;66.41
55456;BME280;63021;52.836;6.376;2022-08-21T00:24:27;101715.63;;;15.91;65.78
55456;BME280;63021;52.836;6.376;2022-08-21T00:26:55;101719.50;;;15.89;66.17
55456;BME280;63021;52.836;6.376;2022-08-21T00:29:23;101722.31;;;15.87;66.75
55456;BME280;63021;52.836;6.376;2022-08-21T00:31:57;101720.81;;;15.85;66.36
55456;BME280;63021;52.836;6.376;2022-08-21T00:34:27;101718.13;;;15.85;66.14
55456;BME280;63021;52.836;6.376;2022-08-21T00:37:02;101723.13;;;15.80;66.28
55456;BME280;63021;52.836;6.376;2022-08-21T00:39:33;101719.75;;;15.77;66.47
55456;BME280;63021;52.836;6.376;2022-08-21T00:42:04;101710.00;;;15.76;66.33
55456;BME280;63021;52.836;6.376;2022-08-21T00:44:34;101719.03;;;15.75;66.49
55456;BME280;63021;52.836;6.376;2022-08-21T00:47:04;101720.03;;;15.74;66.36
55456;BME280;63021;52.836;6.376;2022-08-21T00:49:34;101713.16;;;15.72;66.82
55456;BME280;63021;52.836;6.376;2022-08-21T00:52:05;101718.38;;;15.73;66.28
55456;BME280;63021;52.836;6.376;2022-08-21T00:54:35;101722.06;;;15.72;66.83
55456;BME280;63021;52.836;6.376;2022-08-21T00:57:34;101724.72;;;15.72;66.44
55456;BME280;63021;52.836;6.376;2022-08-21T01:00:12;101725.06;;;15.69;66.41
55456;BME280;63021;52.836;6.376;2022-08-21T01:02:45;101716.31;;;15.67;66.63
55456;BME280;63021;52.836;6.376;2022-08-21T01:05:26;101712.94;;;15.65;66.79
55456;BME280;63021;52.836;6.376;2022-08-21T01:07:55;101719.16;;;15.66;66.54
55456;BME280;63021;52.836;6.376;2022-08-21T01:10:26;101722.16;;;15.63;67.44
55456;BME280;63021;52.836;6.376;2022-08-21T01:12:54;101715.13;;;15.62;67.48
55456;BME280;63021;52.836;6.376;2022-08-21T01:15:26;101720.63;;;15.60;67.14
55456;BME280;63021;52.836;6.376;2022-08-21T01:17:54;101719.13;;;15.57;67.30
55456;BME280;63021;52.836;6.376;2022-08-21T01:20:27;101721.09;;;15.55;67.69
55456;BME280;63021;52.836;6.376;2022-08-21T01:22:54;101724.94;;;15.53;67.36
55456;BME280;63021;52.836;6.376;2022-08-21T01:25:28;101726.28;;;15.49;67.20
55456;BME280;63021;52.836;6.376;2022-08-21T01:27:59;101730.78;;;15.48;67.29
55456;BME280;63021;52.836;6.376;2022-08-21T01:30:29;101722.22;;;15.45;67.56
55456;BME280;63021;52.836;6.376;2022-08-21T01:32:59;101716.47;;;15.39;67.01
55456;BME280;63021;52.836;6.376;2022-08-21T01:35:31;101717.47;;;15.38;67.43
55456;BME280;63021;52.836;6.376;2022-08-21T01:38:34;101717.78;;;15.35;68.00
55456;BME280;63021;52.836;6.376;2022-08-21T01:41:03;101710.22;;;15.31;67.43
55456;BME280;63021;52.836;6.376;2022-08-21T01:43:32;101706.16;;;15.27;67.91
55456;BME280;63021;52.836;6.376;2022-08-21T01:46:04;101711.69;;;15.25;67.96
55456;BME280;63021;52.836;6.376;2022-08-21T01:48:34;101718.03;;;15.24;68.08
55456;BME280;63021;52.836;6.376;2022-08-21T01:51:02;101713.16;;;15.19;67.79
55456;BME280;63021;52.836;6.376;2022-08-21T01:53:33;101715.00;;;15.19;68.00
55456;BME280;63021;52.836;6.376;2022-08-21T01:56:02;101706.25;;;15.17;68.04
55456;BME280;63021;52.836;6.376;2022-08-21T02:01:22;101702.19;;;15.13;68.16
55456;BME280;63021;52.836;6.376;2022-08-21T02:03:51;101701.53;;;15.11;67.97
55456;BME280;63021;52.836;6.376;2022-08-21T02:06:26;101691.94;;;15.08;68.15
55456;BME280;63021;52.836;6.376;2022-08-21T02:08:52;101700.16;;;15.06;68.30
55456;BME280;63021;52.836;6.376;2022-08-21T02:11:20;101695.78;;;15.05;67.84
55456;BME280;63021;52.836;6.376;2022-08-21T02:13:49;101690.56;;;15.04;68.04
55456;BME280;63021;52.836;6.376;2022-08-21T02:16:16;101686.22;;;15.03;67.59
55456;BME280;63021;52.836;6.376;2022-08-21T02:18:45;101683.69;;;15.01;67.68
55456;BME280;63021;52.836;6.376;2022-08-21T02:21:14;101685.53;;;15.01;68.17
55456;BME280;63021;52.836;6.376;2022-08-21T02:23:44;101680.47;;;14.98;67.73
55456;BME280;63021;52.836;6.376;2022-08-21T02:26:15;101678.78;;;14.97;67.98
55456;BME280;63021;52.836;6.376;2022-08-21T02:28:45;101688.00;;;14.94;67.96
55456;BME280;63021;52.836;6.376;2022-08-21T02:31:14;101686.31;;;14.93;68.50
55456;BME280;63021;52.836;6.376;2022-08-21T02:33:48;101695.34;;;14.92;68.37
55456;BME280;63021;52.836;6.376;2022-08-21T02:36:15;101679.56;;;14.89;68.77
55456;BME280;63021;52.836;6.376;2022-08-21T02:38:50;101688.59;;;14.88;68.76
55456;BME280;63021;52.836;6.376;2022-08-21T02:41:20;101686.94;;;14.87;68.21
55456;BME280;63021;52.836;6.376;2022-08-21T02:43:52;101680.03;;;14.84;68.56
55456;BME280;63021;52.836;6.376;2022-08-21T02:46:22;101679.19;;;14.84;68.39
55456;BME280;63021;52.836;6.376;2022-08-21T02:48:52;101674.28;;;14.79;68.63
55456;BME280;63021;52.836;6.376;2022-08-21T02:51:20;101676.13;;;14.79;68.48
55456;BME280;63021;52.836;6.376;2022-08-21T02:53:49;101678.81;;;14.79;68.64
55456;BME280;63021;52.836;6.376;2022-08-21T02:56:19;101686.16;;;14.77;69.12
55456;BME280;63021;52.836;6.376;2022-08-21T02:58:54;101683.63;;;14.75;69.26
55456;BME280;63021;52.836;6.376;2022-08-21T03:01:20;101683.78;;;14.73;69.03
55456;BME280;63021;52.836;6.376;2022-08-21T03:03:50;101675.06;;;14.71;69.45
55456;BME280;63021;52.836;6.376;2022-08-21T03:06:21;101674.22;;;14.71;69.03
55456;BME280;63021;52.836;6.376;2022-08-21T03:08:51;101665.50;;;14.69;68.99
55456;BME280;63021;52.836;6.376;2022-08-21T03:11:21;101663.97;;;14.66;68.92
55456;BME280;63021;52.836;6.376;2022-08-21T03:13:50;101666.63;;;14.66;68.71
55456;BME280;63021;52.836;6.376;2022-08-21T03:16:21;101659.75;;;14.64;69.51
55456;BME280;63021;52.836;6.376;2022-08-21T03:18:51;101658.19;;;14.61;69.13
55456;BME280;63021;52.836;6.376;2022-08-21T03:21:21;101656.81;;;14.57;68.80
55456;BME280;63021;52.836;6.376;2022-08-21T03:23:52;101656.66;;;14.59;69.12
55456;BME280;63021;52.836;6.376;2022-08-21T03:26:25;101656.66;;;14.59;68.87
55456;BME280;63021;52.836;6.376;2022-08-21T03:28:55;101649.78;;;14.56;68.73
55456;BME280;63021;52.836;6.376;2022-08-21T03:31:24;101643.56;;;14.55;69.54
55456;BME280;63021;52.836;6.376;2022-08-21T03:33:53;101651.63;;;14.55;68.81
55456;BME280;63021;52.836;6.376;2022-08-21T03:36:23;101647.25;;;14.54;69.87
55456;BME280;63021;52.836;6.376;2022-08-21T03:38:50;101643.88;;;14.52;69.34
55456;BME280;63021;52.836;6.376;2022-08-21T03:41:55;101642.88;;;14.53;69.95
55456;BME280;63021;52.836;6.376;2022-08-21T03:44:28;101644.00;;;14.51;69.17
55456;BME280;63021;52.836;6.376;2022-08-21T03:46:56;101637.00;;;14.50;69.40
55456;BME280;63021;52.836;6.376;2022-08-21T03:49:23;101635.31;;;14.49;69.90
55456;BME280;63021;52.836;6.376;2022-08-21T03:51:54;101639.69;;;14.50;69.43
55456;BME280;63021;52.836;6.376;2022-08-21T03:54:24;101632.63;;;14.49;69.75
55456;BME280;63021;52.836;6.376;2022-08-21T03:56:52;101635.31;;;14.49;69.50
55456;BME280;63021;52.836;6.376;2022-08-21T03:59:23;101632.94;;;14.46;69.56
55456;BME280;63021;52.836;6.376;2022-08-21T04:05:20;101637.59;;;14.44;69.44
55456;BME280;63021;52.836;6.376;2022-08-21T04:08:03;101637.75;;;14.42;70.28
55456;BME280;63021;52.836;6.376;2022-08-21T04:10:41;101637.91;;;14.41;70.33
55456;BME280;63021;52.836;6.376;2022-08-21T04:13:11;101644.53;;;14.36;70.33
55456;BME280;63021;52.836;6.376;2022-08-21T04:15:43;101644.69;;;14.35;69.96
55456;BME280;63021;52.836;6.376;2022-08-21T04:18:16;101644.03;;;14.33;70.68
55456;BME280;63021;52.836;6.376;2022-08-21T04:20:48;101643.19;;;14.32;69.98
55456;BME280;63021;52.836;6.376;2022-08-21T04:23:19;101638.13;;;14.29;70.56
55456;BME280;63021;52.836;6.376;2022-08-21T04:25:48;101641.66;;;14.30;70.80
55456;BME280;63021;52.836;6.376;2022-08-21T04:28:20;101643.47;;;14.29;69.93
55456;BME280;63021;52.836;6.376;2022-08-21T04:30:51;101633.78;;;14.28;70.24
55456;BME280;63021;52.836;6.376;2022-08-21T04:33:24;101643.47;;;14.29;70.60
55456;BME280;63021;52.836;6.376;2022-08-21T04:35:52;101643.63;;;14.28;69.97
55456;BME280;63021;52.836;6.376;2022-08-21T04:38:20;101640.13;;;14.27;70.73
55456;BME280;63021;52.836;6.376;2022-08-21T04:40:51;101642.78;;;14.27;70.20
55456;BME280;63021;52.836;6.376;2022-08-21T04:43:19;101643.63;;;14.28;70.73
55456;BME280;63021;52.836;6.376;2022-08-21T04:45:49;101646.16;;;14.29;70.36
55456;BME280;63021;52.836;6.376;2022-08-21T04:48:19;101650.53;;;14.30;70.68
55456;BME280;63021;52.836;6.376;2022-08-21T04:51:09;101651.22;;;14.32;70.97
55456;BME280;63021;52.836;6.376;2022-08-21T04:53:53;101638.66;;;14.33;70.38
55456;BME280;63021;52.836;6.376;2022-08-21T04:56:34;101644.84;;;14.33;70.30
55456;BME280;63021;52.836;6.376;2022-08-21T04:59:07;101642.88;;;14.35;70.04
55456;BME280;63021;52.836;6.376;2022-08-21T05:01:40;101640.06;;;14.37;70.92
55456;BME280;63021;52.836;6.376;2022-08-21T05:04:14;101646.09;;;14.39;70.61
55456;BME280;63021;52.836;6.376;2022-08-21T05:06:44;101646.78;;;14.41;71.19
55456;BME280;63021;52.836;6.376;2022-08-21T05:09:17;101654.53;;;14.44;70.56
55456;BME280;63021;52.836;6.376;2022-08-21T05:11:48;101654.22;;;14.47;70.45
55456;BME280;63021;52.836;6.376;2022-08-21T05:14:21;101656.72;;;14.49;70.79
55456;BME280;63021;52.836;6.376;2022-08-21T05:16:54;101658.13;;;14.53;70.67
55456;BME280;63021;52.836;6.376;2022-08-21T05:19:24;101662.19;;;14.57;70.77
55456;BME280;63021;52.836;6.376;2022-08-21T05:21:55;101661.88;;;14.60;70.51
55456;BME280;63021;52.836;6.376;2022-08-21T05:24:28;101656.94;;;14.65;70.94
55456;BME280;63021;52.836;6.376;2022-08-21T05:26:56;101652.09;;;14.69;70.67
55456;BME280;63021;52.836;6.376;2022-08-21T05:29:35;101656.00;;;14.75;71.18
55456;BME280;63021;52.836;6.376;2022-08-21T05:32:08;101651.03;;;14.80;71.35
55456;BME280;63021;52.836;6.376;2022-08-21T05:34:39;101658.59;;;14.84;71.26
55456;BME280;63021;52.836;6.376;2022-08-21T05:37:20;101657.13;;;14.90;71.19
55456;BME280;63021;52.836;6.376;2022-08-21T05:39:50;101661.69;;;14.98;71.03
55456;BME280;63021;52.836;6.376;2022-08-21T05:42:18;101655.88;;;15.02;70.94
55456;BME280;63021;52.836;6.376;2022-08-21T05:44:46;101654.25;;;15.10;70.75
55456;BME280;63021;52.836;6.376;2022-08-21T05:47:38;101657.66;;;15.20;71.53
55456;BME280;63021;52.836;6.376;2022-08-21T05:50:07;101653.66;;;15.24;71.11
55456;BME280;63021;52.836;6.376;2022-08-21T05:52:35;101661.78;;;15.32;71.07
55456;BME280;63021;52.836;6.376;2022-08-21T05:55:03;101657.63;;;15.38;71.39
55456;BME280;63021;52.836;6.376;2022-08-21T05:57:36;101656.81;;;15.46;71.25
55456;BME280;63021;52.836;6.376;2022-08-21T06:00:11;101661.41;;;15.53;71.08
55456;BME280;63021;52.836;6.376;2022-08-21T06:02:40;101658.06;;;15.59;70.98
55456;BME280;63021;52.836;6.376;2022-08-21T06:05:13;101661.94;;;15.65;70.80
55456;BME280;63021;52.836;6.376;2022-08-21T06:07:47;101657.63;;;15.72;71.28
55456;BME280;63021;52.836;6.376;2022-08-21T06:10:17;101657.88;;;15.79;71.51
55456;BME280;63021;52.836;6.376;2022-08-21T06:12:47;101659.88;;;15.85;70.76
55456;BME280;63021;52.836;6.376;2022-08-21T06:15:23;101662.78;;;15.92;70.92
55456;BME280;63021;52.836;6.376;2022-08-21T06:17:52;101666.50;;;15.99;70.54
55456;BME280;63021;52.836;6.376;2022-08-21T06:20:24;101663.00;;;16.07;70.85
55456;BME280;63021;52.836;6.376;2022-08-21T06:22:57;101654.44;;;16.11;70.42
55456;BME280;63021;52.836;6.376;2022-08-21T06:25:25;101654.63;;;16.18;70.46
55456;BME280;63021;52.836;6.376;2022-08-21T06:31:21;101658.69;;;16.39;70.71
55456;BME280;63021;52.836;6.376;2022-08-21T06:33:50;101655.19;;;16.47;70.70
55456;BME280;63021;52.836;6.376;2022-08-21T06:36:22;101654.19;;;16.56;70.66
55456;BME280;63021;52.836;6.376;2022-08-21T06:41:26;101647.97;;;16.72;70.44
55456;BME280;63021;52.836;6.376;2022-08-21T06:43:53;101659.56;;;16.80;70.36
55456;BME280;63021;52.836;6.376;2022-08-21T06:46:22;101649.84;;;16.88;70.36
55456;BME280;63021;52.836;6.376;2022-08-21T06:48:54;101654.06;;;16.99;70.28
55456;BME280;63021;52.836;6.376;2022-08-21T06:51:42;101659.25;;;17.08;69.88
55456;BME280;63021;52.836;6.376;2022-08-21T06:54:10;101658.41;;;17.16;69.56
55456;BME280;63021;52.836;6.376;2022-08-21T06:56:39;101660.91;;;17.26;69.55
55456;BME280;63021;52.836;6.376;2022-08-21T06:59:05;101657.19;;;17.35;69.25
55456;BME280;63021;52.836;6.376;2022-08-21T07:01:37;101657.69;;;17.47;69.07
55456;BME280;63021;52.836;6.376;2022-08-21T07:04:09;101653.09;;;17.56;69.20
55456;BME280;63021;52.836;6.376;2022-08-21T07:06:39;101650.03;;;17.67;68.92
55456;BME280;63021;52.836;6.376;2022-08-21T07:09:06;101650.16;;;17.74;68.59
55456;BME280;63021;52.836;6.376;2022-08-21T07:11:36;101651.47;;;17.86;68.14
55456;BME280;63021;52.836;6.376;2022-08-21T07:14:12;101644.22;;;17.95;67.99
55456;BME280;63021;52.836;6.376;2022-08-21T07:16:55;101651.22;;;18.04;67.83
55456;BME280;63021;52.836;6.376;2022-08-21T07:19:20;101653.69;;;18.14;67.49
55456;BME280;63021;52.836;6.376;2022-08-21T07:21:57;101649.09;;;18.23;67.11
55456;BME280;63021;52.836;6.376;2022-08-21T07:24:23;101650.06;;;18.30;67.03
55456;BME280;63021;52.836;6.376;2022-08-21T07:26:50;101646.50;;;18.38;66.83
55456;BME280;63021;52.836;6.376;2022-08-21T07:29:16;101640.38;;;18.44;65.82
55456;BME280;63021;52.836;6.376;2022-08-21T07:31:42;101645.72;;;18.52;66.02
55456;BME280;63021;52.836;6.376;2022-08-21T07:34:10;101637.91;;;18.57;65.55
55456;BME280;63021;52.836;6.376;2022-08-21T07:36:36;101638.03;;;18.64;65.32
55456;BME280;63021;52.836;6.376;2022-08-21T07:39:03;101648.75;;;18.72;65.49
55456;BME280;63021;52.836;6.376;2022-08-21T07:41:35;101639.94;;;18.78;65.10
55456;BME280;63021;52.836;6.376;2022-08-21T07:44:08;101651.03;;;18.83;64.34
55456;BME280;63021;52.836;6.376;2022-08-21T07:46:43;101648.63;;;18.89;63.87
55456;BME280;63021;52.836;6.376;2022-08-21T07:49:11;101640.84;;;18.94;63.23
55456;BME280;63021;52.836;6.376;2022-08-21T07:51:49;101642.81;;;19.00;63.10
55456;BME280;63021;52.836;6.376;2022-08-21T07:54:16;101643.09;;;19.05;62.71
55456;BME280;63021;52.836;6.376;2022-08-21T07:56:42;101648.41;;;19.13;63.11
55456;BME280;63021;52.836;6.376;2022-08-21T07:59:11;101649.16;;;19.22;62.30
55456;BME280;63021;52.836;6.376;2022-08-21T08:01:40;101649.25;;;19.29;62.20
55456;BME280;63021;52.836;6.376;2022-08-21T08:04:10;101646.84;;;19.34;61.88
55456;BME280;63021;52.836;6.376;2022-08-21T08:06:38;101645.09;;;19.41;61.73
55456;BME280;63021;52.836;6.376;2022-08-21T08:09:18;101640.81;;;19.47;60.97
55456;BME280;63021;52.836;6.376;2022-08-21T08:11:45;101642.94;;;19.51;61.04
55456;BME280;63021;52.836;6.376;2022-08-21T08:14:18;101645.91;;;19.56;60.82
55456;BME280;63021;52.836;6.376;2022-08-21T08:16:44;101637.25;;;19.61;61.16
55456;BME280;63021;52.836;6.376;2022-08-21T08:19:15;101634.38;;;19.63;60.03
55456;BME280;63021;52.836;6.376;2022-08-21T08:21:45;101640.88;;;19.68;59.68
55456;BME280;63021;52.836;6.376;2022-08-21T08:24:14;101636.78;;;19.72;58.63
55456;BME280;63021;52.836;6.376;2022-08-21T08:26:40;101634.19;;;19.79;58.16
55456;BME280;63021;52.836;6.376;2022-08-21T08:29:11;101631.75;;;19.84;58.02
55456;BME280;63021;52.836;6.376;2022-08-21T08:31:44;101630.34;;;19.88;57.58
55456;BME280;63021;52.836;6.376;2022-08-21T08:37:29;101624.63;;;19.98;57.23
55456;BME280;63021;52.836;6.376;2022-08-21T08:39:55;101626.78;;;20.03;57.01
55456;BME280;63021;52.836;6.376;2022-08-21T08:42:29;101627.88;;;20.08;57.39
55456;BME280;63021;52.836;6.376;2022-08-21T08:45:10;101622.72;;;20.14;57.81
55456;BME280;63021;52.836;6.376;2022-08-21T08:47:43;101614.03;;;20.18;57.48
55456;BME280;63021;52.836;6.376;2022-08-21T08:50:23;101626.13;;;20.22;57.71
55456;BME280;63021;52.836;6.376;2022-08-21T08:53:03;101618.09;;;20.29;58.27
55456;BME280;63021;52.836;6.376;2022-08-21T08:55:38;101620.88;;;20.36;57.54
55456;BME280;63021;52.836;6.376;2022-08-21T08:58:09;101621.13;;;20.41;57.74
55456;BME280;63021;52.836;6.376;2022-08-21T09:00:43;101613.28;;;20.46;57.91
55456;BME280;63021;52.836;6.376;2022-08-21T09:03:13;101617.47;;;20.49;58.32
55456;BME280;63021;52.836;6.376;2022-08-21T09:11:37;101619.53;;;20.68;58.34
55456;BME280;63021;52.836;6.376;2022-08-21T09:19:59;101629.88;;;20.86;58.00
55456;BME280;63021;52.836;6.376;2022-08-21T09:25:31;101625.38;;;20.93;58.02
55456;BME280;63021;52.836;6.376;2022-08-21T09:28:01;101626.19;;;20.94;57.87
55456;BME280;63021;52.836;6.376;2022-08-21T09:30:33;101625.38;;;21.00;57.92
55456;BME280;63021;52.836;6.376;2022-08-21T09:33:05;101629.19;;;21.06;57.93
55456;BME280;63021;52.836;6.376;2022-08-21T09:35:34;101615.06;;;21.10;58.61
55456;BME280;63021;52.836;6.376;2022-08-21T09:38:09;101613.88;;;21.20;57.99
55456;BME280;63021;52.836;6.376;2022-08-21T09:40:44;101604.13;;;21.25;58.62
55456;BME280;63021;52.836;6.376;2022-08-21T09:45:50;101618.25;;;21.56;57.91
55456;BME280;63021;52.836;6.376;2022-08-21T09:48:41;101616.66;;;21.68;58.02
55456;BME280;63021;52.836;6.376;2022-08-21T09:51:14;101621.25;;;21.74;56.95
55456;BME280;63021;52.836;6.376;2022-08-21T09:53:47;101612.53;;;21.79;56.81
55456;BME280;63021;52.836;6.376;2022-08-21T10:01:53;101613.84;;;22.03;57.04
55456;BME280;63021;52.836;6.376;2022-08-21T10:04:28;101609.06;;;22.12;56.97
55456;BME280;63021;52.836;6.376;2022-08-21T10:06:54;101609.72;;;22.21;56.66
55456;BME280;63021;52.836;6.376;2022-08-21T10:09:20;101600.16;;;22.31;56.67
55456;BME280;63021;52.836;6.376;2022-08-21T10:12:07;101609.34;;;22.44;56.27
55456;BME280;63021;52.836;6.376;2022-08-21T10:14:53;101601.66;;;22.54;54.76
55456;BME280;63021;52.836;6.376;2022-08-21T10:20:30;101606.44;;;22.52;54.66
55456;BME280;63021;52.836;6.376;2022-08-21T10:25:58;101609.78;;;22.47;54.65
55456;BME280;63021;52.836;6.376;2022-08-21T10:28:44;101606.44;;;22.45;55.02
55456;BME280;63021;52.836;6.376;2022-08-21T10:31:21;101616.47;;;22.45;54.86
55456;BME280;63021;52.836;6.376;2022-08-21T10:43:02;101615.16;;;22.27;55.03
55456;BME280;63021;52.836;6.376;2022-08-21T10:45:42;101608.25;;;22.25;55.48
55456;BME280;63021;52.836;6.376;2022-08-21T10:56:33;101608.25;;;22.11;54.72
55456;BME280;63021;52.836;6.376;2022-08-21T11:02:19;101603.84;;;22.10;55.42
55456;BME280;63021;52.836;6.376;2022-08-21T11:04:59;101607.84;;;22.21;55.00
55456;BME280;63021;52.836;6.376;2022-08-21T11:07:47;101600.97;;;22.32;55.37
55456;BME280;63021;52.836;6.376;2022-08-21T11:10:53;101595.16;;;22.35;55.11
55456;BME280;63021;52.836;6.376;2022-08-21T11:13:37;101598.31;;;22.39;55.16
55456;BME280;63021;52.836;6.376;2022-08-21T11:16:19;101604.16;;;22.49;55.72
55456;BME280;63021;52.836;6.376;2022-08-21T11:19:02;101596.84;;;22.63;54.85
55456;BME280;63021;52.836;6.376;2022-08-21T11:21:39;101593.53;;;22.74;54.25
55456;BME280;63021;52.836;6.376;2022-08-21T11:26:47;101590.97;;;22.99;52.29
55456;BME280;63021;52.836;6.376;2022-08-21T11:29:25;101593.06;;;23.11;51.97
55456;BME280;63021;52.836;6.376;2022-08-21T11:32:15;101597.84;;;23.15;50.48
55456;BME280;63021;52.836;6.376;2022-08-21T11:35:33;101594.31;;;23.15;50.40
55456;BME280;63021;52.836;6.376;2022-08-21T11:38:28;101597.00;;;23.08;50.27
55456;BME280;63021;52.836;6.376;2022-08-21T11:47:17;101598.28;;;22.99;50.29
55456;BME280;63021;52.836;6.376;2022-08-21T11:50:18;101603.50;;;22.94;50.51
55456;BME280;63021;52.836;6.376;2022-08-21T11:52:59;101589.75;;;22.89;50.71
55456;BME280;63021;52.836;6.376;2022-08-21T11:55:50;101594.97;;;22.90;50.96
55456;BME280;63021;52.836;6.376;2022-08-21T12:01:07;101592.22;;;22.97;51.20
55456;BME280;63021;52.836;6.376;2022-08-21T12:03:42;101605.38;;;23.07;51.88
55456;BME280;63021;52.836;6.376;2022-08-21T12:06:34;101590.94;;;23.20;51.84
55456;BME280;63021;52.836;6.376;2022-08-21T12:09:09;101597.19;;;23.33;51.12
55456;BME280;63021;52.836;6.376;2022-08-21T12:14:43;101598.75;;;23.61;50.94
55456;BME280;63021;52.836;6.376;2022-08-21T12:17:23;101590.94;;;23.78;50.16
55456;BME280;63021;52.836;6.376;2022-08-21T12:19:59;101598.44;;;23.90;49.76
55456;BME280;63021;52.836;6.376;2022-08-21T12:23:01;101603.13;;;24.08;49.78
55456;BME280;63021;52.836;6.376;2022-08-21T12:28:32;101598.72;;;24.45;48.31
55456;BME280;63021;52.836;6.376;2022-08-21T12:31:25;101597.63;;;24.46;48.05
55456;BME280;63021;52.836;6.376;2022-08-21T12:33:56;101596.56;;;24.54;48.50
55456;BME280;63021;52.836;6.376;2022-08-21T12:36:29;101589.19;;;24.61;47.86
55456;BME280;63021;52.836;6.376;2022-08-21T12:39:13;101597.69;;;24.71;47.29
55456;BME280;63021;52.836;6.376;2022-08-21T12:42:00;101594.28;;;24.76;47.89
55456;BME280;63021;52.836;6.376;2022-08-21T12:44:59;101602.84;;;24.80;48.51
55456;BME280;63021;52.836;6.376;2022-08-21T12:47:47;101594.69;;;24.80;47.91
55456;BME280;63021;52.836;6.376;2022-08-21T12:50:29;101586.28;;;24.81;47.92
55456;BME280;63021;52.836;6.376;2022-08-21T12:53:27;101594.06;;;24.78;47.13
55456;BME280;63021;52.836;6.376;2022-08-21T12:56:03;101586.78;;;24.71;47.21
55456;BME280;63021;52.836;6.376;2022-08-21T12:58:39;101592.84;;;24.73;47.58
55456;BME280;63021;52.836;6.376;2022-08-21T13:01:40;101585.88;;;24.78;47.49
55456;BME280;63021;52.836;6.376;2022-08-21T13:07:42;101601.44;;;24.96;45.90
55456;BME280;63021;52.836;6.376;2022-08-21T13:10:30;101592.41;;;24.95;46.29
55456;BME280;63021;52.836;6.376;2022-08-21T13:13:04;101596.59;;;24.98;44.83
55456;BME280;63021;52.836;6.376;2022-08-21T13:15:37;101598.31;;;24.92;45.51
55456;BME280;63021;52.836;6.376;2022-08-21T13:18:07;101593.72;;;24.93;44.55
55456;BME280;63021;52.836;6.376;2022-08-21T13:20:43;101597.34;;;25.05;44.44
55456;BME280;63021;52.836;6.376;2022-08-21T13:23:28;101595.38;;;25.12;44.45
55456;BME280;63021;52.836;6.376;2022-08-21T13:25:59;101586.22;;;25.06;44.93
55456;BME280;63021;52.836;6.376;2022-08-21T13:28:34;101585.63;;;25.04;44.49
55456;BME280;63021;52.836;6.376;2022-08-21T13:31:07;101594.84;;;25.03;44.59
55456;BME280;63021;52.836;6.376;2022-08-21T13:33:44;101594.69;;;24.98;44.91
55456;BME280;63021;52.836;6.376;2022-08-21T13:36:27;101592.72;;;24.87;44.38
55456;BME280;63021;52.836;6.376;2022-08-21T13:38:57;101600.63;;;24.70;44.39
55456;BME280;63021;52.836;6.376;2022-08-21T13:41:32;101593.78;;;24.61;44.74
55456;BME280;63021;52.836;6.376;2022-08-21T13:44:13;101596.09;;;24.57;44.51
55456;BME280;63021;52.836;6.376;2022-08-21T13:46:45;101610.44;;;24.46;45.23
55456;BME280;63021;52.836;6.376;2022-08-21T13:49:17;101604.78;;;24.41;45.40
55456;BME280;63021;52.836;6.376;2022-08-21T13:51:49;101597.09;;;24.37;45.95
55456;BME280;63021;52.836;6.376;2022-08-21T13:54:40;101605.47;;;24.36;45.66
55456;BME280;63021;52.836;6.376;2022-08-21T13:57:29;101611.16;;;24.28;45.92
55456;BME280;63021;52.836;6.376;2022-08-21T14:02:46;101606.88;;;24.13;47.17
55456;BME280;63021;52.836;6.376;2022-08-21T14:05:30;101598.13;;;24.04;47.87
55456;BME280;63021;52.836;6.376;2022-08-21T14:10:35;101604.00;;;24.08;48.02
55456;BME280;63021;52.836;6.376;2022-08-21T14:13:07;101598.94;;;24.12;47.85
55456;BME280;63021;52.836;6.376;2022-08-21T14:15:36;101603.50;;;24.18;47.83
55456;BME280;63021;52.836;6.376;2022-08-21T14:18:17;101603.63;;;24.30;47.78
55456;BME280;63021;52.836;6.376;2022-08-21T14:20:47;101605.09;;;24.32;47.09
55456;BME280;63021;52.836;6.376;2022-08-21T14:23:24;101597.53;;;24.34;46.68
55456;BME280;63021;52.836;6.376;2022-08-21T14:25:51;101602.38;;;24.32;46.75
55456;BME280;63021;52.836;6.376;2022-08-21T14:28:32;101596.94;;;24.32;46.65
55456;BME280;63021;52.836;6.376;2022-08-21T14:31:12;101602.16;;;24.34;47.06
55456;BME280;63021;52.836;6.376;2022-08-21T14:33:43;101597.13;;;24.31;47.21
55456;BME280;63021;52.836;6.376;2022-08-21T14:36:10;101604.25;;;24.32;46.67
55456;BME280;63021;52.836;6.376;2022-08-21T14:38:45;101603.16;;;24.39;47.25
55456;BME280;63021;52.836;6.376;2022-08-21T14:41:25;101602.59;;;24.56;45.98
55456;BME280;63021;52.836;6.376;2022-08-21T14:43:58;101602.81;;;24.61;46.34
55456;BME280;63021;52.836;6.376;2022-08-21T14:49:49;101606.34;;;24.87;45.54
55456;BME280;63021;52.836;6.376;2022-08-21T14:52:31;101604.81;;;24.91;45.89
55456;BME280;63021;52.836;6.376;2022-08-21T14:55:03;101608.97;;;24.94;45.66
55456;BME280;63021;52.836;6.376;2022-08-21T14:57:33;101609.44;;;24.90;45.01
55456;BME280;63021;52.836;6.376;2022-08-21T15:00:07;101613.06;;;24.84;43.99